createdAt,value
2018-02-18T00:00:51.095Z,29.30
2018-02-18T00:03:22.055Z,29.10
2018-02-18T00:05:53.037Z,29.57
2018-02-18T00:08:24.045Z,29.43
2018-02-18T00:10:55.130Z,28.23
2018-02-18T00:13:26.151Z,30.03
2018-02-18T00:15:57.231Z,29.10
2018-02-18T00:18:28.253Z,27.50
2018-02-18T00:20:59.249Z,28.03
2018-02-18T00:23:30.227Z,29.60
2018-02-18T00:26:01.257Z,28.90
2018-02-18T00:28:32.288Z,28.33
2018-02-18T00:31:03.310Z,29.73
2018-02-18T00:33:34.283Z,29.65
2018-02-18T00:36:05.277Z,26.47
2018-02-18T00:38:36.257Z,29.43
2018-02-18T00:41:07.276Z,27.47
2018-02-18T00:43:38.288Z,28.85
2018-02-18T00:46:09.283Z,29.12
2018-02-18T00:48:40.270Z,28.17
2018-02-18T00:51:11.299Z,27.10
2018-02-18T00:53:42.338Z,28.75
2018-02-18T00:56:13.315Z,28.15
2018-02-18T00:58:44.329Z,25.97
2018-02-18T01:01:15.370Z,27.23
2018-02-18T01:03:46.366Z,27.07
2018-02-18T01:06:17.351Z,28.20
2018-02-18T01:08:48.355Z,26.33
2018-02-18T01:11:19.346Z,27.60
2018-02-18T01:13:50.339Z,26.47
2018-02-18T01:16:21.346Z,27.80
2018-02-18T01:18:52.334Z,26.03
2018-02-18T01:21:23.351Z,29.23
2018-02-18T01:23:54.343Z,26.40
2018-02-18T01:26:25.318Z,25.10
2018-02-18T01:28:56.357Z,26.13
2018-02-18T01:31:27.471Z,25.52
2018-02-18T01:33:58.467Z,24.73
2018-02-18T01:36:29.473Z,25.63
2018-02-18T01:39:00.465Z,25.53
2018-02-18T01:41:31.497Z,25.43
2018-02-18T01:44:02.483Z,24.25
2018-02-18T01:46:33.491Z,24.87
2018-02-18T01:49:04.517Z,24.33
2018-02-18T01:51:35.554Z,24.95
2018-02-18T01:54:06.559Z,26.08
2018-02-18T01:56:37.580Z,24.33
2018-02-18T01:59:08.613Z,24.92
2018-02-18T02:01:39.613Z,24.02
2018-02-18T02:04:10.601Z,24.30
2018-02-18T02:06:41.569Z,26.33
2018-02-18T02:09:12.608Z,24.80
2018-02-18T02:11:43.664Z,24.63
2018-02-18T02:14:14.704Z,24.80
2018-02-18T02:16:45.692Z,24.80
2018-02-18T02:19:16.661Z,25.07
2018-02-18T02:21:47.699Z,24.17
2018-02-18T02:24:18.718Z,24.40
2018-02-18T02:26:49.747Z,24.02
2018-02-18T02:29:20.727Z,24.52
2018-02-18T02:31:51.757Z,24.83
2018-02-18T02:34:22.794Z,25.15
2018-02-18T02:36:53.811Z,24.50
2018-02-18T02:39:24.999Z,24.40
2018-02-18T02:41:58.823Z,23.75
2018-02-18T02:44:29.885Z,24.12
2018-02-18T02:47:00.882Z,25.73
2018-02-18T02:49:31.890Z,24.27
2018-02-18T02:52:02.920Z,25.83
2018-02-18T02:54:33.897Z,23.42
2018-02-18T02:57:04.940Z,24.57
2018-02-18T02:59:35.906Z,23.92
2018-02-18T03:02:06.913Z,24.83
2018-02-18T03:04:37.910Z,24.15
2018-02-18T03:07:08.969Z,26.20
2018-02-18T03:09:39.989Z,24.53
2018-02-18T03:12:10.984Z,23.95
2018-02-18T03:14:41.972Z,24.70
2018-02-18T03:17:12.961Z,23.20
2018-02-18T03:19:44.033Z,23.73
2018-02-18T03:22:15.000Z,23.03
2018-02-18T03:24:46.004Z,22.97
2018-02-18T03:27:16.986Z,22.90
2018-02-18T03:29:48.001Z,23.53
2018-02-18T03:32:19.004Z,23.52
2018-02-18T03:34:50.044Z,25.03
2018-02-18T03:37:21.040Z,22.55
2018-02-18T03:39:51.998Z,23.10
2018-02-18T03:42:22.995Z,24.00
2018-02-18T03:44:53.978Z,23.33
2018-02-18T03:47:25.022Z,23.93
2018-02-18T03:49:56.044Z,24.77
2018-02-18T03:52:27.002Z,24.98
2018-02-18T03:54:57.969Z,23.57
2018-02-18T03:57:28.974Z,25.33
2018-02-18T03:59:59.943Z,24.70
2018-02-18T04:02:30.957Z,25.23
2018-02-18T04:05:01.978Z,23.87
2018-02-18T04:07:32.969Z,25.42
2018-02-18T04:10:03.961Z,24.67
2018-02-18T04:12:34.958Z,25.93
2018-02-18T04:15:05.971Z,26.00
2018-02-18T04:17:36.985Z,26.05
2018-02-18T04:20:08.022Z,24.75
2018-02-18T04:22:39.029Z,25.45
2018-02-18T04:25:10.023Z,26.42
2018-02-18T04:27:41.059Z,26.70
2018-02-18T04:30:12.085Z,26.95
2018-02-18T04:32:43.071Z,27.10
2018-02-18T04:35:14.078Z,27.97
2018-02-18T04:37:45.060Z,27.02
2018-02-18T04:40:16.029Z,26.40
2018-02-18T04:42:47.030Z,27.20
2018-02-18T04:45:17.972Z,26.90
2018-02-18T04:47:48.964Z,25.93
2018-02-18T04:50:19.949Z,25.27
2018-02-18T04:52:50.935Z,27.17
2018-02-18T04:55:22.008Z,26.60
2018-02-18T04:57:52.996Z,26.23
2018-02-18T05:00:23.976Z,26.25
2018-02-18T05:03:02.042Z,24.97
2018-02-18T05:05:33.013Z,27.10
2018-02-18T05:08:04.060Z,25.60
2018-02-18T05:10:35.012Z,27.77
2018-02-18T05:13:05.963Z,27.00
2018-02-18T05:15:36.983Z,27.27
2018-02-18T05:18:08.021Z,26.42
2018-02-18T05:20:39.047Z,27.65
2018-02-18T05:23:10.048Z,28.10
2018-02-18T05:25:41.077Z,27.73
2018-02-18T05:28:12.068Z,28.62
2018-02-18T05:30:43.037Z,27.27
2018-02-18T05:33:14.054Z,27.63
2018-02-18T05:35:45.047Z,26.60
2018-02-18T05:38:16.016Z,26.43
2018-02-18T05:40:46.974Z,26.47
2018-02-18T05:43:18.006Z,28.40
2018-02-18T05:45:49.011Z,26.12
2018-02-18T05:48:20.034Z,29.05
2018-02-18T05:50:51.000Z,26.17
2018-02-18T05:53:22.037Z,25.30
2018-02-18T05:55:53.057Z,24.15
2018-02-18T05:58:24.041Z,25.35
2018-02-18T06:01:02.158Z,26.23
2018-02-18T06:03:33.139Z,24.85
2018-02-18T06:06:04.170Z,23.23
2018-02-18T06:08:35.180Z,23.67
2018-02-18T06:11:06.203Z,23.98
2018-02-18T06:13:37.215Z,21.90
2018-02-18T06:16:08.213Z,24.33
2018-02-18T06:18:39.213Z,25.23
2018-02-18T06:21:10.228Z,22.50
2018-02-18T06:23:41.256Z,24.25
2018-02-18T06:26:12.260Z,22.90
2018-02-18T06:28:43.291Z,23.05
2018-02-18T06:31:14.300Z,23.00
2018-02-18T06:33:45.279Z,23.60
2018-02-18T06:36:16.284Z,25.03
2018-02-18T06:38:47.282Z,23.00
2018-02-18T06:41:18.274Z,23.37
2018-02-18T06:43:49.264Z,23.27
2018-02-18T06:46:20.217Z,24.27
2018-02-18T06:48:51.227Z,22.03
2018-02-18T06:51:22.204Z,23.90
2018-02-18T06:53:53.184Z,22.07
2018-02-18T06:56:24.199Z,22.70
2018-02-18T06:58:55.182Z,24.70
2018-02-18T07:01:26.186Z,22.70
2018-02-18T07:03:57.208Z,22.17
2018-02-18T07:06:28.201Z,22.40
2018-02-18T07:08:59.258Z,22.27
2018-02-18T07:11:30.263Z,22.13
2018-02-18T07:14:01.274Z,22.63
2018-02-18T07:16:32.269Z,22.73
2018-02-18T07:19:03.288Z,22.17
2018-02-18T07:21:34.256Z,22.73
2018-02-18T07:24:05.249Z,22.93
2018-02-18T07:26:36.260Z,22.20
2018-02-18T07:29:07.248Z,21.83
2018-02-18T07:31:38.230Z,22.47
2018-02-18T07:34:09.272Z,22.17
2018-02-18T07:36:40.284Z,23.20
2018-02-18T07:39:11.275Z,22.87
2018-02-18T07:41:42.268Z,23.47
2018-02-18T07:44:13.275Z,22.80
2018-02-18T07:46:44.287Z,23.73
2018-02-18T07:49:15.323Z,25.10
2018-02-18T07:51:46.369Z,23.60
2018-02-18T07:54:17.413Z,24.70
2018-02-18T07:56:48.516Z,25.97
2018-02-18T07:59:19.539Z,24.13
2018-02-18T08:01:50.577Z,22.73
2018-02-18T08:04:21.750Z,24.47
2018-02-18T08:06:52.747Z,22.43
2018-02-18T08:09:23.813Z,22.43
2018-02-18T08:11:54.811Z,25.57
2018-02-18T08:14:25.845Z,22.47
2018-02-18T08:16:56.855Z,20.70
2018-02-18T08:19:27.868Z,21.20
2018-02-18T08:21:58.875Z,22.83
2018-02-18T08:24:29.949Z,21.37
2018-02-18T08:27:00.939Z,22.17
2018-02-18T08:29:31.991Z,22.97
2018-02-18T08:32:03.002Z,22.73
2018-02-18T08:34:34.104Z,20.13
2018-02-18T08:37:05.086Z,22.40
2018-02-18T08:39:36.118Z,21.90
2018-02-18T08:42:07.123Z,21.43
2018-02-18T08:44:38.136Z,21.10
2018-02-18T08:47:09.143Z,21.93
2018-02-18T08:49:40.175Z,22.47
2018-02-18T08:52:11.197Z,22.10
2018-02-18T08:54:42.236Z,21.27
2018-02-18T08:57:13.193Z,20.93
2018-02-18T08:59:44.249Z,21.17
2018-02-18T09:02:15.215Z,20.97
2018-02-18T09:04:46.292Z,21.63
2018-02-18T09:07:17.440Z,22.60
2018-02-18T09:09:55.532Z,22.37
2018-02-18T09:12:33.339Z,23.33
2018-02-18T09:15:04.328Z,21.47
2018-02-18T09:17:35.318Z,23.50
2018-02-18T09:20:06.320Z,22.87
2018-02-18T09:22:37.369Z,23.33
2018-02-18T09:25:08.375Z,22.60
2018-02-18T09:27:39.458Z,23.87
2018-02-18T09:30:10.440Z,23.53
2018-02-18T09:32:41.452Z,24.23
2018-02-18T09:35:12.443Z,22.50
2018-02-18T09:37:43.475Z,23.23
2018-02-18T09:40:14.504Z,25.03
2018-02-18T09:42:45.592Z,24.67
2018-02-18T09:45:16.574Z,24.63
2018-02-18T09:47:47.620Z,25.63
2018-02-18T09:50:18.593Z,24.20
2018-02-18T09:52:49.632Z,24.50
2018-02-18T09:55:20.641Z,24.13
2018-02-18T09:57:51.641Z,23.10
2018-02-18T10:00:22.620Z,22.77
2018-02-18T10:02:53.644Z,29.85
2018-02-18T10:05:24.631Z,26.07
2018-02-18T10:07:55.691Z,25.33
2018-02-18T10:10:26.705Z,23.23
2018-02-18T10:12:58.699Z,26.23
2018-02-18T10:15:29.708Z,26.03
2018-02-18T10:18:00.763Z,24.63
2018-02-18T10:20:31.722Z,26.73
2018-02-18T10:23:02.744Z,25.63
2018-02-18T10:25:33.755Z,26.40
2018-02-18T10:28:04.773Z,24.87
2018-02-18T10:30:35.781Z,25.57
2018-02-18T10:33:06.793Z,25.20
2018-02-18T10:35:37.818Z,25.10
2018-02-18T10:38:08.887Z,27.40
2018-02-18T10:40:39.879Z,26.00
2018-02-18T10:43:10.875Z,24.33
2018-02-18T10:45:41.873Z,26.20
2018-02-18T10:48:12.864Z,26.03
2018-02-18T10:50:43.980Z,25.73
2018-02-18T10:53:14.964Z,26.50
2018-02-18T10:55:46.079Z,25.77
2018-02-18T10:58:17.100Z,26.97
2018-02-18T11:00:48.092Z,27.17
2018-02-18T11:03:19.087Z,26.97
2018-02-18T11:05:50.040Z,27.00
2018-02-18T11:08:21.083Z,25.73
2018-02-18T11:10:52.157Z,27.10
2018-02-18T11:13:23.140Z,25.50
2018-02-18T11:15:54.168Z,25.57
2018-02-18T11:18:25.172Z,25.73
2018-02-18T11:20:56.204Z,26.47
2018-02-18T11:23:27.246Z,27.53
2018-02-18T11:25:58.284Z,26.30
2018-02-18T11:28:29.236Z,28.53
2018-02-18T11:31:00.264Z,28.13
2018-02-18T11:33:31.357Z,28.37
2018-02-18T11:36:02.373Z,27.73
2018-02-18T11:38:33.460Z,27.30
2018-02-18T11:41:04.485Z,26.77
2018-02-18T11:43:35.468Z,28.93
2018-02-18T11:46:06.447Z,27.93
2018-02-18T11:48:37.411Z,27.00
2018-02-18T11:51:08.409Z,27.50
2018-02-18T11:53:39.412Z,28.13
2018-02-18T11:56:10.439Z,27.30
2018-02-18T11:58:41.485Z,27.97
2018-02-18T12:01:12.481Z,25.87
2018-02-18T12:03:43.496Z,26.70
2018-02-18T12:06:14.562Z,27.17
2018-02-18T12:08:45.561Z,27.50
2018-02-18T12:11:16.628Z,26.60
2018-02-18T12:13:47.629Z,25.60
2018-02-18T12:16:18.649Z,26.27
2018-02-18T12:18:49.633Z,27.80
2018-02-18T12:21:20.640Z,26.70
2018-02-18T12:23:51.620Z,27.07
2018-02-18T12:26:22.622Z,25.87
2018-02-18T12:28:53.616Z,26.97
2018-02-18T12:31:25.414Z,25.67
2018-02-18T12:33:56.407Z,25.23
2018-02-18T12:36:27.430Z,25.60
2018-02-18T12:38:58.410Z,24.73
2018-02-18T12:41:30.186Z,26.60
2018-02-18T12:44:01.212Z,26.77
2018-02-18T12:46:32.239Z,25.03
2018-02-18T12:49:03.248Z,24.13
2018-02-18T12:51:34.251Z,22.83
2018-02-18T12:54:05.227Z,25.30
2018-02-18T12:56:36.208Z,26.17
2018-02-18T12:59:07.180Z,25.00
2018-02-18T13:01:38.161Z,24.43
2018-02-18T13:04:09.163Z,24.33
2018-02-18T13:06:40.148Z,24.60
2018-02-18T13:09:11.134Z,23.17
2018-02-18T13:11:42.082Z,23.50
2018-02-18T13:14:13.055Z,24.00
2018-02-18T13:16:44.035Z,24.77
2018-02-18T13:19:15.119Z,25.17
2018-02-18T13:21:46.122Z,23.67
2018-02-18T13:24:17.126Z,24.33
2018-02-18T13:26:48.135Z,23.70
2018-02-18T13:29:19.172Z,25.13
2018-02-18T13:31:50.136Z,24.13
2018-02-18T13:34:21.121Z,25.70
2018-02-18T13:36:52.169Z,23.90
2018-02-18T13:39:23.176Z,23.30
2018-02-18T13:41:54.244Z,24.20
2018-02-18T13:44:25.242Z,25.80
2018-02-18T13:46:56.237Z,24.00
2018-02-18T13:49:27.238Z,24.67
2018-02-18T13:51:58.257Z,23.43
2018-02-18T13:54:29.256Z,23.07
2018-02-18T13:57:00.254Z,25.37
2018-02-18T13:59:31.306Z,23.90
2018-02-18T14:02:02.271Z,23.60
2018-02-18T14:04:34.880Z,23.67
2018-02-18T14:07:05.848Z,21.93
2018-02-18T14:09:36.833Z,23.07
2018-02-18T14:12:07.813Z,22.40
2018-02-18T14:14:38.854Z,22.33
2018-02-18T14:17:09.879Z,22.40
2018-02-18T14:19:40.888Z,23.00
2018-02-18T14:22:11.919Z,21.27
2018-02-18T14:24:42.930Z,21.63
2018-02-18T14:27:13.965Z,21.97
2018-02-18T14:29:44.935Z,23.40
2018-02-18T14:32:15.995Z,22.87
2018-02-18T14:34:47.034Z,21.83
2018-02-18T14:37:18.038Z,22.87
2018-02-18T14:39:49.107Z,22.90
2018-02-18T14:42:32.384Z,23.20
2018-02-18T14:45:15.632Z,21.70
2018-02-18T14:47:58.826Z,23.20
2018-02-18T14:50:42.257Z,22.00
2018-02-18T14:53:25.365Z,22.13
2018-02-18T14:56:08.741Z,22.03
2018-02-18T14:58:39.708Z,22.57
2018-02-18T15:01:10.739Z,23.57
2018-02-18T15:03:41.780Z,22.57
2018-02-18T15:06:12.811Z,22.50
2018-02-18T15:08:43.818Z,23.07
2018-02-18T15:11:14.867Z,22.07
2018-02-18T15:13:45.880Z,22.97
2018-02-18T15:16:16.891Z,22.50
2018-02-18T15:18:47.892Z,20.90
2018-02-18T15:21:18.905Z,22.37
2018-02-18T15:23:49.943Z,22.23
2018-02-18T15:26:20.932Z,23.77
2018-02-18T15:28:51.918Z,22.97
2018-02-18T15:31:22.933Z,22.73
2018-02-18T15:33:53.961Z,22.10
2018-02-18T15:36:25.003Z,19.13
2018-02-18T15:38:55.981Z,20.07
2018-02-18T15:41:26.994Z,20.17
2018-02-18T15:43:57.978Z,19.03
2018-02-18T15:46:29.020Z,17.90
2018-02-18T15:48:59.996Z,17.50
2018-02-18T15:51:31.020Z,18.63
2018-02-18T15:54:02.034Z,16.80
2018-02-18T15:56:33.053Z,15.47
2018-02-18T15:59:04.077Z,15.20
2018-02-18T16:01:35.042Z,17.50
2018-02-18T16:04:06.069Z,15.17
2018-02-18T16:06:37.547Z,14.10
2018-02-18T16:09:08.544Z,16.33
2018-02-18T16:11:39.551Z,14.57
2018-02-18T16:14:10.577Z,12.20
2018-02-18T16:16:41.630Z,11.97
2018-02-18T16:19:12.616Z,11.43
2018-02-18T16:21:43.633Z,12.60
2018-02-18T16:24:14.640Z,12.17
2018-02-18T16:26:45.669Z,12.37
2018-02-18T16:29:16.703Z,13.10
2018-02-18T16:31:47.719Z,12.33
2018-02-18T16:34:18.786Z,13.97
2018-02-18T16:36:49.744Z,13.53
2018-02-18T16:39:20.719Z,13.37
2018-02-18T16:41:51.757Z,13.53
2018-02-18T16:44:22.758Z,13.53
2018-02-18T16:46:53.735Z,14.53
2018-02-18T16:49:24.763Z,13.53
2018-02-18T16:51:55.738Z,13.03
2018-02-18T16:54:26.764Z,13.80
2018-02-18T16:56:57.793Z,14.57
2018-02-18T16:59:28.881Z,13.77
2018-02-18T17:01:59.879Z,14.77
2018-02-18T17:04:30.873Z,16.40
2018-02-18T17:07:01.882Z,16.93
2018-02-18T17:09:32.890Z,16.47
2018-02-18T17:12:03.892Z,14.60
2018-02-18T17:14:34.953Z,17.83
2018-02-18T17:17:05.989Z,20.50
2018-02-18T17:19:37.005Z,17.55
2018-02-18T17:22:08.032Z,15.82
2018-02-18T17:24:39.004Z,17.70
2018-02-18T17:27:10.046Z,17.20
2018-02-18T17:29:41.087Z,16.92
2018-02-18T17:32:12.135Z,17.93
2018-02-18T17:34:43.142Z,18.83
2018-02-18T17:37:14.135Z,19.03
2018-02-18T17:39:45.298Z,20.57
2018-02-18T17:42:16.339Z,18.50
2018-02-18T17:44:47.345Z,21.30
2018-02-18T17:47:18.397Z,21.60
2018-02-18T17:49:49.414Z,22.42
2018-02-18T17:52:20.421Z,23.08
2018-02-18T17:54:51.435Z,22.60
2018-02-18T17:57:22.457Z,24.23
2018-02-18T17:59:53.529Z,23.92
2018-02-18T18:02:24.560Z,25.65
2018-02-18T18:04:55.583Z,25.27
2018-02-18T18:07:26.580Z,26.85
2018-02-18T18:09:57.614Z,25.87
2018-02-18T18:12:28.597Z,27.75
2018-02-18T18:14:59.641Z,24.60
2018-02-18T18:17:30.665Z,25.65
2018-02-18T18:20:01.696Z,25.23
2018-02-18T18:22:32.697Z,25.73
2018-02-18T18:25:03.658Z,22.77
2018-02-18T18:27:34.716Z,26.33
2018-02-18T18:30:05.762Z,25.73
2018-02-18T18:32:36.793Z,25.05
2018-02-18T18:35:07.841Z,26.52
2018-02-18T18:37:38.878Z,26.80
2018-02-18T18:40:09.935Z,27.70
2018-02-18T18:42:40.909Z,24.87
2018-02-18T18:45:11.956Z,25.53
2018-02-18T18:47:42.941Z,25.30
2018-02-18T18:50:13.999Z,25.67
2018-02-18T18:52:44.964Z,27.83
2018-02-18T18:55:15.998Z,26.10
2018-02-18T18:57:46.979Z,25.80
2018-02-18T19:00:18.056Z,27.73
2018-02-18T19:02:48.975Z,32.67
2018-02-18T19:05:20.124Z,24.37
2018-02-18T19:07:51.117Z,25.50
2018-02-18T19:10:22.117Z,26.33
2018-02-18T19:12:53.118Z,28.93
2018-02-18T19:15:24.096Z,27.87
2018-02-18T19:17:55.112Z,26.60
2018-02-18T19:20:26.083Z,24.00
2018-02-18T19:22:57.106Z,24.30
2018-02-18T19:25:28.109Z,26.53
2018-02-18T19:27:59.101Z,23.73
2018-02-18T19:30:30.168Z,24.23
2018-02-18T19:33:01.168Z,23.17
2018-02-18T19:35:32.171Z,25.47
2018-02-18T19:38:03.167Z,28.17
2018-02-18T19:40:34.195Z,27.73
2018-02-18T19:43:05.203Z,25.90
2018-02-18T19:45:36.273Z,27.30
2018-02-18T19:48:07.289Z,27.20
2018-02-18T19:50:38.334Z,29.70
2018-02-18T19:53:09.309Z,29.40
2018-02-18T19:55:40.417Z,27.70
2018-02-18T19:58:11.399Z,26.87
2018-02-18T20:00:42.380Z,28.57
2018-02-18T20:03:13.355Z,28.77
2018-02-18T20:05:44.362Z,28.20
2018-02-18T20:08:15.338Z,28.92
2018-02-18T20:10:46.365Z,30.07
2018-02-18T20:13:17.411Z,30.60
2018-02-18T20:15:48.435Z,30.27
2018-02-18T20:18:19.380Z,32.58
2018-02-18T20:20:50.428Z,31.43
2018-02-18T20:23:21.509Z,32.75
2018-02-18T20:25:52.503Z,31.55
2018-02-18T20:28:23.594Z,32.20
2018-02-18T20:30:54.585Z,34.95
2018-02-18T20:33:25.632Z,30.67
2018-02-18T20:35:56.609Z,31.02
2018-02-18T20:38:27.674Z,30.97
2018-02-18T20:40:58.619Z,33.13
2018-02-18T20:43:29.635Z,30.50
2018-02-18T20:46:00.662Z,32.17
2018-02-18T20:48:31.679Z,29.33
2018-02-18T20:51:02.674Z,30.33
2018-02-18T20:53:33.699Z,30.27
2018-02-18T20:56:04.758Z,27.45
2018-02-18T20:58:35.791Z,28.10
2018-02-18T21:01:06.808Z,27.40
2018-02-18T21:03:37.800Z,27.33
2018-02-18T21:06:08.809Z,27.17
2018-02-18T21:08:39.806Z,29.77
2018-02-18T21:11:10.844Z,28.40
2018-02-18T21:13:41.880Z,29.05
2018-02-18T21:16:12.833Z,26.95
2018-02-18T21:18:43.843Z,27.27
2018-02-18T21:21:14.849Z,26.90
2018-02-18T21:23:45.835Z,25.25
2018-02-18T21:26:16.870Z,24.33
2018-02-18T21:28:47.853Z,24.85
2018-02-18T21:31:18.873Z,22.87
2018-02-18T21:33:49.863Z,25.75
2018-02-18T21:36:21.025Z,25.53
2018-02-18T21:38:52.016Z,24.27
2018-02-18T21:41:22.979Z,24.40
2018-02-18T21:44:00.920Z,24.20
2018-02-18T21:46:31.930Z,23.45
2018-02-18T21:49:02.944Z,23.12
2018-02-18T21:51:33.935Z,23.65
2018-02-18T21:54:04.926Z,21.97
2018-02-18T21:56:35.922Z,21.83
2018-02-18T21:59:07.057Z,23.12
2018-02-18T22:01:38.060Z,21.15
2018-02-18T22:04:09.081Z,21.33
2018-02-18T22:06:40.037Z,21.40
2018-02-18T22:09:11.047Z,21.70
2018-02-18T22:11:42.055Z,21.23
2018-02-18T22:14:13.059Z,20.98
2018-02-18T22:16:44.039Z,19.15
2018-02-18T22:19:15.049Z,21.57
2018-02-18T22:21:45.997Z,18.60
2018-02-18T22:24:17.049Z,18.47
2018-02-18T22:26:48.071Z,17.70
2018-02-18T22:29:19.040Z,17.67
2018-02-18T22:31:50.056Z,16.33
2018-02-18T22:34:21.043Z,16.95
2018-02-18T22:36:52.048Z,16.67
2018-02-18T22:39:23.004Z,14.70
2018-02-18T22:41:54.032Z,16.73
2018-02-18T22:44:25.007Z,15.63
2018-02-18T22:46:56.049Z,14.37
2018-02-18T22:49:27.050Z,15.65
2018-02-18T22:51:58.086Z,14.48
2018-02-18T22:54:29.048Z,14.75
2018-02-18T22:57:00.066Z,13.93
2018-02-18T22:59:31.189Z,14.87
2018-02-18T23:02:02.261Z,13.23
2018-02-18T23:04:33.269Z,13.55
2018-02-18T23:07:07.168Z,12.35
2018-02-18T23:09:38.155Z,12.75
2018-02-18T23:12:09.177Z,14.43
2018-02-18T23:14:40.220Z,12.48
2018-02-18T23:17:11.212Z,12.73
2018-02-18T23:19:42.235Z,11.63
2018-02-18T23:22:13.209Z,12.50
2018-02-18T23:24:44.201Z,9.20
2018-02-18T23:27:15.206Z,11.00
2018-02-18T23:29:46.156Z,11.50
2018-02-18T23:32:17.175Z,11.20
2018-02-18T23:34:48.137Z,11.73
2018-02-18T23:37:19.181Z,11.40
2018-02-18T23:39:50.250Z,11.90
2018-02-18T23:42:21.240Z,12.40
2018-02-18T23:44:52.277Z,12.03
2018-02-18T23:47:23.249Z,12.90
2018-02-18T23:49:54.266Z,13.87
2018-02-18T23:52:25.199Z,12.73
2018-02-18T23:54:56.187Z,12.50
2018-02-18T23:57:27.186Z,12.02
2018-02-18T23:59:58.373Z,13.62
